METAR
Diposting tanggal: 16 November 2020

Pukul : 06.00 UTC

Isi :
METAR WAGI 202300Z 00000KT 7000 SCT014 23/22 Q1011 NOSIG=